Time;durP1;ratioP1;P1;durP2;ratioP2;P2;SDS_P1;SDS_P2;PMS_P1;PMS_P2;Temp;Humidity;BMP_temperature;BMP_pressure;BME280_temperature;BME280_humidity;BME280_pressure;Samples;Min_cycle;Max_cycle;Signal;HPM_P1;HPM_P2
2022/06/06 00:01:44;;;;;;;10.60;6.93;;;;;;;21.42;76.45;98825.63;4971817;28;20199;-86
2022/06/06 00:04:10;;;;;;;9.23;6.63;;;;;;;22.17;77.26;98957.22;4956115;28;20278;-86
2022/06/06 00:06:36;;;;;;;9.30;6.63;;;;;;;20.89;77.64;98741.09;4972092;28;20168;-85
2022/06/06 00:09:01;;;;;;;10.53;7.10;;;;;;;22.12;78.15;98952.09;4972161;28;20214;-85
2022/06/06 00:11:26;;;;;;;10.17;6.17;;;;;;;21.69;78.53;98887.19;4972113;28;20697;-87
2022/06/06 00:13:52;;;;;;;8.27;6.43;;;;;;;21.57;77.96;98856.38;4971476;28;20169;-85
2022/06/06 00:16:18;;;;;;;10.70;6.70;;;;;;;21.96;77.85;98911.03;4955664;28;20192;-85
2022/06/06 00:18:44;;;;;;;11.40;6.57;;;;;;;20.47;78.17;98688.22;4971927;28;20238;-86
2022/06/06 00:21:11;;;;;;;9.10;6.47;;;;;;;21.33;78.52;98840.28;4956196;28;20176;-86
2022/06/06 00:23:38;;;;;;;8.37;6.40;;;;;;;21.34;78.93;98847.16;4997567;28;20257;-86
2022/06/06 00:26:08;;;;;;;8.77;6.37;;;;;;;21.69;79.88;98904.38;5010708;28;20174;-86
2022/06/06 00:28:35;;;;;;;10.47;6.03;;;;;;;21.43;79.12;98832.47;4994955;28;20202;-86
2022/06/06 00:36:31;;;;;;;7.63;5.73;;;;;;;22.19;78.05;98935.72;5023720;28;20193;-86
2022/06/06 00:38:57;;;;;;;9.57;5.60;;;;;;;21.96;77.43;98865.47;5032508;28;20158;-86
2022/06/06 00:41:22;;;;;;;9.73;5.63;;;;;;;22.30;76.92;98907.22;5032165;28;20227;-86
2022/06/06 00:44:11;;;;;;;7.47;5.33;;;;;;;22.07;76.76;98855.03;5032101;28;20240;-87
2022/06/06 00:46:42;;;;;;;7.37;5.40;;;;;;;22.51;75.75;98890.63;5031908;28;20170;-84
2022/06/06 00:49:14;;;;;;;8.13;5.50;;;;;;;22.09;75.34;98806.88;5032729;28;20213;-86
2022/06/06 00:51:40;;;;;;;11.03;5.10;;;;;;;22.78;74.28;98914.41;5035950;28;20628;-87
2022/06/06 00:54:06;;;;;;;6.67;5.07;;;;;;;22.54;74.38;98875.97;5037086;28;20198;-87
2022/06/06 00:56:46;;;;;;;7.93;5.30;;;;;;;21.33;74.99;98690.94;5036735;28;20212;-87
2022/06/06 00:59:16;;;;;;;7.07;4.90;;;;;;;21.49;75.06;98708.78;5036669;28;20245;-87
2022/06/06 01:01:42;;;;;;;8.47;5.30;;;;;;;22.59;75.55;98920.63;5036393;28;20192;-86
2022/06/06 01:04:12;;;;;;;6.37;5.23;;;;;;;19.97;76.69;98518.06;5037139;28;20211;-86
2022/06/06 01:06:41;;;;;;;10.27;5.10;;;;;;;22.49;76.63;98923.34;5051594;28;20217;-83
2022/06/06 01:09:06;;;;;;;7.27;4.80;;;;;;;22.36;77.15;98917.47;5041811;28;20182;-85
2022/06/06 01:11:37;;;;;;;7.17;5.03;;;;;;;22.43;76.52;98908.78;5037255;28;20173;-85
2022/06/06 01:14:04;;;;;;;6.83;4.97;;;;;;;21.30;76.88;98717.56;5036270;28;20170;-86
2022/06/06 01:17:01;;;;;;;8.60;4.93;;;;;;;22.24;76.39;98846.25;5019012;28;20165;-85
2022/06/06 01:19:39;;;;;;;8.00;4.90;;;;;;;22.61;75.77;98897.38;4996281;28;20794;-88
2022/06/06 01:22:42;;;;;;;8.60;5.03;;;;;;;22.53;75.01;98874.25;4994045;28;20186;-84
2022/06/06 01:25:14;;;;;;;8.60;4.90;;;;;;;22.60;74.76;98887.94;4979793;28;20633;-85
2022/06/06 01:27:45;;;;;;;8.37;4.87;;;;;;;22.60;74.88;98888.81;4974640;28;20192;-85
2022/06/06 01:30:14;;;;;;;9.77;4.90;;;;;;;22.48;75.31;98876.06;4975668;28;20279;-87
2022/06/06 01:32:45;;;;;;;8.60;5.33;;;;;;;22.51;75.06;98870.00;4975893;28;20211;-86
2022/06/06 01:35:20;;;;;;;7.73;5.10;;;;;;;22.46;74.54;98870.06;4959134;28;20191;-86
2022/06/06 01:37:46;;;;;;;8.77;4.87;;;;;;;22.11;76.16;98869.63;4976184;28;20191;-86
2022/06/06 01:40:14;;;;;;;6.70;5.10;;;;;;;21.74;75.73;98792.66;4975901;28;20160;-86
2022/06/06 01:43:00;;;;;;;8.03;5.07;;;;;;;22.34;74.47;98858.16;4976256;28;20219;-85
2022/06/06 01:45:38;;;;;;;6.83;5.10;;;;;;;22.29;74.37;98857.38;4976762;28;20168;-85
2022/06/06 01:48:10;;;;;;;6.90;5.27;;;;;;;22.35;73.97;98859.03;4976770;28;20727;-85
2022/06/06 01:50:37;;;;;;;7.53;4.77;;;;;;;22.25;73.25;98832.47;4974927;28;20724;-85
2022/06/06 01:53:06;;;;;;;6.97;4.97;;;;;;;22.32;73.41;98866.78;4973964;28;20264;-85
2022/06/06 01:55:35;;;;;;;7.87;5.27;;;;;;;21.93;73.40;98802.78;4973252;28;20262;-85
2022/06/06 01:58:03;;;;;;;6.60;4.87;;;;;;;21.32;72.80;98699.50;5039941;28;20162;-86
2022/06/06 02:00:31;;;;;;;6.50;4.93;;;;;;;22.46;72.69;98874.38;5036039;28;20166;-85
2022/06/06 02:02:57;;;;;;;8.37;5.27;;;;;;;21.65;72.56;98730.91;5035296;28;20615;-86
2022/06/06 02:05:22;;;;;;;8.43;5.13;;;;;;;22.43;72.52;98858.91;5035098;28;20184;-86
2022/06/06 02:07:48;;;;;;;7.07;5.10;;;;;;;21.22;72.26;98652.44;5035654;28;20190;-87
2022/06/06 02:10:16;;;;;;;6.40;4.93;;;;;;;22.24;72.70;98842.81;5037291;28;20713;-86
2022/06/06 02:12:43;;;;;;;8.63;4.90;;;;;;;21.35;74.61;98738.09;5035966;28;20635;-85
2022/06/06 02:15:11;;;;;;;7.40;4.90;;;;;;;20.92;75.20;98673.28;5035854;28;20200;-86
2022/06/06 02:17:37;;;;;;;7.50;4.83;;;;;;;22.13;74.77;98840.38;5036191;28;20181;-86
2022/06/06 02:20:04;;;;;;;7.67;5.17;;;;;;;20.19;74.95;98529.88;5035877;28;20631;-86
2022/06/06 02:22:30;;;;;;;8.07;5.27;;;;;;;22.05;74.99;98833.59;5035803;28;20218;-88
2022/06/06 02:24:56;;;;;;;7.67;4.97;;;;;;;22.10;74.76;98826.66;5035329;28;20200;-86
2022/06/06 02:27:26;;;;;;;9.10;4.90;;;;;;;22.15;75.42;98824.88;5036066;28;20174;-86
2022/06/06 02:29:52;;;;;;;9.27;5.17;;;;;;;22.05;74.90;98802.66;5017873;28;20154;-87
2022/06/06 02:32:17;;;;;;;5.10;4.53;;;;;;;22.22;74.45;98826.53;5035323;28;20164;-86
2022/06/06 02:34:43;;;;;;;6.97;5.40;;;;;;;22.17;74.75;98825.69;5036005;28;20217;-86
2022/06/06 02:37:08;;;;;;;8.57;5.20;;;;;;;21.42;75.40;98722.59;5016757;28;20221;-86
2022/06/06 02:39:34;;;;;;;8.43;5.43;;;;;;;21.82;75.91;98794.28;5034063;28;20631;-86
2022/06/06 02:41:59;;;;;;;8.73;5.23;;;;;;;22.07;76.03;98847.31;5034488;28;20641;-87
2022/06/06 02:44:25;;;;;;;11.93;5.50;;;;;;;21.99;75.55;98807.88;5038531;28;20606;-87
2022/06/06 02:46:50;;;;;;;9.97;6.20;;;;;;;21.73;75.13;98760.03;5045759;28;20158;-86
2022/06/06 02:49:16;;;;;;;10.07;5.97;;;;;;;21.57;75.47;98747.31;5051914;28;20186;-85
2022/06/06 02:51:42;;;;;;;8.27;5.13;;;;;;;22.13;74.23;98806.00;5036532;28;20235;-85
2022/06/06 02:54:08;;;;;;;11.30;5.33;;;;;;;21.27;73.74;98681.53;5034649;28;20230;-86
2022/06/06 02:56:33;;;;;;;11.23;5.33;;;;;;;22.28;74.08;98852.22;5033822;28;20161;-86
2022/06/06 02:59:03;;;;;;;6.83;5.43;;;;;;;22.24;73.98;98845.41;5034450;28;20154;-86
2022/06/06 03:01:29;;;;;;;8.63;5.40;;;;;;;22.37;74.14;98838.34;5035787;28;20272;-86
2022/06/06 03:03:54;;;;;;;7.60;5.47;;;;;;;21.96;73.69;98758.94;5034938;28;20190;-87
2022/06/06 03:06:27;;;;;;;8.03;5.20;;;;;;;22.42;73.72;98849.47;5034101;28;20649;-85
2022/06/06 03:09:16;;;;;;;8.43;5.43;;;;;;;22.46;73.26;98859.75;5034527;28;20189;-84
2022/06/06 03:11:54;;;;;;;9.40;5.47;;;;;;;22.56;72.51;98871.66;5033673;28;20181;-85
2022/06/06 03:14:35;;;;;;;8.07;5.60;;;;;;;22.49;73.32;98888.09;5032886;28;20157;-85
2022/06/06 03:20:48;;;;;;;7.67;5.63;;;;;;;22.05;75.90;98944.44;4992182;28;20238;-85
2022/06/06 03:23:20;;;;;;;7.47;5.53;;;;;;;21.51;80.17;99028.16;4995456;28;20309;-88
2022/06/06 03:26:23;;;;;;;10.37;5.63;;;;;;;21.54;83.58;99043.59;4993085;28;20599;-86
2022/06/06 03:28:57;;;;;;;9.10;5.60;;;;;;;20.32;100.00;99040.59;4984318;28;20225;-85
2022/06/06 03:31:34;;;;;;;11.77;6.00;;;;;;;19.27;100.00;98918.03;4989634;28;20257;-85
2022/06/06 03:34:20;;;;;;;11.83;6.40;;;;;;;18.63;100.00;98892.22;4993027;28;20616;-87
2022/06/06 03:36:48;;;;;;;16.83;7.63;;;;;;;18.50;100.00;98877.66;4984444;28;20600;-87
2022/06/06 03:39:49;;;;;;;16.53;7.53;;;;;;;19.80;100.00;99090.22;4990696;28;20214;-88
2022/06/06 03:42:30;;;;;;;12.90;7.20;;;;;;;20.08;100.00;99138.19;4923793;29;20221;-88
2022/06/06 03:45:18;;;;;;;13.20;6.90;;;;;;;19.97;100.00;99175.88;4930281;29;20248;-87
2022/06/06 03:47:52;;;;;;;14.13;7.90;;;;;;;19.76;100.00;99151.00;4971727;28;20211;-88
2022/06/06 03:50:39;;;;;;;14.60;8.83;;;;;;;19.06;100.00;99046.31;4963001;28;20227;-89
2022/06/06 03:53:09;;;;;;;15.17;9.30;;;;;;;20.09;100.00;99235.03;4990826;28;20221;-89
2022/06/06 03:55:43;;;;;;;11.57;8.43;;;;;;;18.99;100.00;99055.69;5002677;28;20199;-90
2022/06/06 03:58:14;;;;;;;17.27;9.07;;;;;;;20.02;100.00;99238.44;5003030;28;20183;-88
2022/06/06 04:00:40;;;;;;;15.60;8.03;;;;;;;19.94;100.00;99245.28;5008083;28;20592;-89
2022/06/06 04:03:06;;;;;;;13.47;8.00;;;;;;;19.94;100.00;99248.66;5011331;28;20190;-89
2022/06/06 04:05:36;;;;;;;12.70;8.40;;;;;;;19.78;100.00;99244.31;5008264;28;20183;-90
2022/06/06 04:08:01;;;;;;;14.07;8.70;;;;;;;19.35;100.00;99209.00;5002058;28;20191;-88
2022/06/06 04:10:41;;;;;;;16.00;8.63;;;;;;;19.41;100.00;99206.50;5000817;28;20228;-90
2022/06/06 04:13:44;;;;;;;16.60;8.50;;;;;;;19.81;100.00;99258.91;4999381;28;20195;-90
2022/06/06 04:16:10;;;;;;;14.73;9.70;;;;;;;19.66;100.00;99251.13;4997926;28;20498;-90
2022/06/06 04:19:01;;;;;;;16.40;10.03;;;;;;;19.64;100.00;99238.25;5018218;28;20189;-90
2022/06/06 04:21:55;;;;;;;17.83;10.60;;;;;;;19.65;100.00;99221.16;5061576;28;20200;-89
2022/06/06 04:24:20;;;;;;;15.03;9.93;;;;;;;19.64;100.00;99216.88;5031574;28;20225;-88
2022/06/06 04:27:14;;;;;;;18.33;10.53;;;;;;;19.63;100.00;99213.44;5036299;28;20174;-90
2022/06/06 04:29:42;;;;;;;17.93;11.03;;;;;;;19.62;100.00;99205.72;5023066;28;20205;-89
2022/06/06 04:32:07;;;;;;;16.93;10.23;;;;;;;19.56;100.00;99198.84;5021380;28;20171;-86
2022/06/06 04:34:56;;;;;;;17.90;10.57;;;;;;;19.43;100.00;99190.25;5020568;28;20169;-88
2022/06/06 04:37:34;;;;;;;18.63;10.77;;;;;;;19.54;100.00;99212.53;5029251;28;20174;-83
2022/06/06 04:40:18;;;;;;;19.73;11.57;;;;;;;19.64;100.00;99199.72;5038066;28;20263;-88
2022/06/06 04:43:05;;;;;;;19.70;11.13;;;;;;;19.68;100.00;99172.38;5038826;28;20169;-89
2022/06/06 04:46:01;;;;;;;21.67;10.33;;;;;;;19.60;100.00;99156.94;5039560;28;20177;-88
2022/06/06 04:48:27;;;;;;;16.97;10.27;;;;;;;19.14;100.00;99055.75;5039582;28;20229;-86
2022/06/06 04:50:54;;;;;;;19.53;10.73;;;;;;;19.64;100.00;99109.00;5030502;28;20283;-85
2022/06/06 04:53:22;;;;;;;17.33;9.60;;;;;;;19.72;100.00;99095.31;5038387;28;20166;-86
2022/06/06 04:55:50;;;;;;;19.57;10.93;;;;;;;19.75;100.00;99091.91;5038303;28;20170;-86
2022/06/06 04:58:17;;;;;;;18.13;10.57;;;;;;;19.36;100.00;99039.56;5020113;28;20205;-87
2022/06/06 05:00:44;;;;;;;19.03;10.60;;;;;;;18.45;100.00;98832.31;5040528;28;20767;-87
2022/06/06 05:03:10;;;;;;;15.03;10.13;;;;;;;19.83;100.00;99029.41;5024648;28;20170;-87
2022/06/06 05:05:57;;;;;;;14.70;9.27;;;;;;;19.88;100.00;98962.63;5042956;28;20217;-87
2022/06/06 05:08:37;;;;;;;20.60;10.40;;;;;;;20.01;100.00;98954.03;5041913;28;20244;-86
2022/06/06 05:11:26;;;;;;;17.73;9.57;;;;;;;19.28;100.00;98848.72;5040258;28;20176;-87
2022/06/06 05:14:05;;;;;;;20.27;10.13;;;;;;;19.78;100.00;98996.84;5042644;28;20166;-87
2022/06/06 05:16:36;;;;;;;19.57;10.67;;;;;;;20.13;100.00;99048.25;5039068;28;20176;-85
2022/06/06 05:19:10;;;;;;;16.23;9.70;;;;;;;20.05;100.00;99045.69;5037752;28;20173;-87
2022/06/06 05:22:03;;;;;;;18.07;9.63;;;;;;;20.29;100.00;99074.00;5038107;28;20182;-87
2022/06/06 05:24:47;;;;;;;17.37;10.03;;;;;;;20.31;100.00;99089.41;5037090;28;20248;-87
2022/06/06 05:27:31;;;;;;;21.50;9.90;;;;;;;20.44;100.00;99078.25;5037532;28;20668;-88
2022/06/06 05:30:05;;;;;;;15.00;9.67;;;;;;;20.38;100.00;99073.16;5035560;28;20656;-87
2022/06/06 05:32:40;;;;;;;14.80;10.07;;;;;;;20.68;100.00;99042.22;5040659;28;20158;-86
2022/06/06 05:35:34;;;;;;;16.07;9.43;;;;;;;19.05;100.00;98693.06;5039598;28;20157;-86
2022/06/06 05:38:18;;;;;;;14.20;9.83;;;;;;;20.82;100.00;99001.03;5049470;28;20169;-85
2022/06/06 05:41:09;;;;;;;16.20;10.03;;;;;;;20.71;100.00;99003.59;5055655;28;20247;-86
2022/06/06 05:44:18;;;;;;;16.30;9.90;;;;;;;21.43;100.00;98988.72;5058015;28;20192;-86
2022/06/06 05:47:00;;;;;;;19.67;9.33;;;;;;;21.63;100.00;98990.31;4954713;29;20250;-85
2022/06/06 05:49:58;;;;;;;12.27;7.77;;;;;;;21.38;100.00;98983.59;4955433;29;20228;-85
2022/06/06 05:52:23;;;;;;;12.80;7.80;;;;;;;21.73;100.00;98986.78;4898129;29;20202;-86
2022/06/06 05:55:07;;;;;;;12.40;6.87;;;;;;;22.29;100.00;98988.91;4897617;29;20585;-85
2022/06/06 05:58:01;;;;;;;12.37;7.00;;;;;;;22.15;100.00;98938.31;4896676;29;20675;-85
2022/06/06 06:00:54;;;;;;;13.53;6.93;;;;;;;22.54;100.00;98983.50;4896841;29;20194;-85
2022/06/06 06:03:35;;;;;;;10.17;6.20;;;;;;;22.19;100.00;98929.72;4897125;29;20541;-85
2022/06/06 06:06:19;;;;;;;14.47;7.20;;;;;;;23.18;100.00;98996.50;4896966;29;20175;-85
2022/06/06 06:09:05;;;;;;;15.20;7.23;;;;;;;23.23;100.00;98937.91;4896790;29;20225;-85
2022/06/06 06:11:37;;;;;;;9.10;6.43;;;;;;;24.54;100.00;99023.69;4896911;29;20961;-85
2022/06/06 06:14:24;;;;;;;8.37;5.90;;;;;;;25.08;100.00;99050.28;4897080;29;20167;-84
2022/06/06 06:16:56;;;;;;;12.07;6.70;;;;;;;25.50;100.00;99064.09;4896926;29;20305;-86
2022/06/06 06:19:29;;;;;;;14.80;6.30;;;;;;;25.58;100.00;99061.34;4896860;29;20171;-85
2022/06/06 06:21:56;;;;;;;14.73;6.60;;;;;;;24.30;100.00;98862.84;4927954;28;20231;-85
2022/06/06 06:24:34;;;;;;;12.57;5.80;;;;;;;25.44;100.00;99058.16;4939600;29;20330;-84
2022/06/06 06:27:02;;;;;;;11.23;6.40;;;;;;;26.05;100.00;99086.19;4954282;29;20169;-86
2022/06/06 06:29:28;;;;;;;9.90;5.33;;;;;;;24.07;100.00;98876.19;5002178;28;20236;-85
2022/06/06 06:32:02;;;;;;;12.63;5.70;;;;;;;25.51;100.00;99072.75;5035531;28;20537;-86
2022/06/06 06:34:51;;;;;;;15.97;6.37;;;;;;;25.06;100.00;98976.06;5034010;28;20184;-86
2022/06/06 06:37:22;;;;;;;12.07;6.80;;;;;;;25.20;100.00;99077.69;5034078;28;20594;-86
2022/06/06 06:40:15;;;;;;;13.53;6.17;;;;;;;25.61;100.00;99071.66;5015823;28;20171;-86
2022/06/06 06:43:06;;;;;;;11.03;6.20;;;;;;;25.26;100.00;99066.34;5016331;28;20190;-86
2022/06/06 06:45:43;;;;;;;12.40;5.93;;;;;;;24.17;100.00;98923.47;5033911;28;20201;-85
2022/06/06 06:48:16;;;;;;;13.33;6.67;;;;;;;25.00;100.00;99043.53;5015022;28;20248;-87
2022/06/06 06:50:53;;;;;;;12.70;7.10;;;;;;;25.32;100.00;99055.84;5033640;28;20166;-86
2022/06/06 06:53:52;;;;;;;10.77;6.67;;;;;;;25.70;100.00;99079.22;5033428;28;20548;-86
2022/06/06 06:56:46;;;;;;;13.47;6.97;;;;;;;25.55;100.00;99062.25;4935142;29;20204;-87
2022/06/06 06:59:23;;;;;;;15.07;7.17;;;;;;;25.58;100.00;99095.03;4918261;29;20170;-86
2022/06/06 07:10:57;;;;;;;13.00;6.53;;;;;;;26.09;100.00;99134.56;4934096;29;20285;-85
2022/06/06 07:13:33;;;;;;;13.43;7.23;;;;;;;25.97;100.00;99130.50;4935337;29;20189;-84
2022/06/06 07:16:18;;;;;;;11.63;6.70;;;;;;;25.18;100.00;98948.16;4917844;29;20188;-86
2022/06/06 07:18:49;;;;;;;12.00;6.27;;;;;;;26.47;100.00;99144.91;4933892;29;20697;-87
2022/06/06 07:21:17;;;;;;;14.00;6.50;;;;;;;26.19;100.00;99123.09;4933862;29;20252;-87
2022/06/06 07:23:48;;;;;;;10.57;6.83;;;;;;;26.27;100.00;99167.88;4947674;29;20807;-87
2022/06/06 07:26:14;;;;;;;11.07;5.50;;;;;;;26.13;100.00;99177.69;4952817;29;20197;-84
2022/06/06 07:28:39;;;;;;;15.97;7.10;;;;;;;25.22;100.00;99126.00;4955523;29;20712;-87
2022/06/06 07:31:20;;;;;;;13.67;7.07;;;;;;;25.22;100.00;99214.09;4955119;29;20165;-87
2022/06/06 07:34:07;;;;;;;14.97;7.70;;;;;;;24.83;100.00;99230.31;5027161;28;20576;-88
2022/06/06 07:37:07;;;;;;;16.47;7.50;;;;;;;24.58;100.00;99211.69;5034373;28;20166;-84
2022/06/06 07:39:57;;;;;;;16.20;7.50;;;;;;;23.86;100.00;99088.63;4953081;29;20191;-87
2022/06/06 07:42:22;;;;;;;16.77;8.30;;;;;;;24.57;100.00;99191.91;4952870;29;20184;-87
2022/06/06 07:44:50;;;;;;;17.07;7.80;;;;;;;24.67;100.00;99180.50;4952413;29;20287;-88
2022/06/06 07:47:31;;;;;;;16.23;8.07;;;;;;;24.70;100.00;99189.94;4952638;29;20176;-88
2022/06/06 07:50:26;;;;;;;11.10;7.03;;;;;;;24.69;100.00;99185.66;4952353;29;20853;-88
2022/06/06 07:53:16;;;;;;;15.93;7.67;;;;;;;24.60;100.00;99189.25;4952694;29;20173;-87
2022/06/06 07:56:05;;;;;;;14.90;8.93;;;;;;;23.59;100.00;99164.81;4936314;29;20177;-88
2022/06/06 07:58:42;;;;;;;13.70;8.57;;;;;;;23.21;100.00;99095.47;4936783;28;20236;-88
2022/06/06 08:01:16;;;;;;;17.83;9.50;;;;;;;22.92;100.00;99046.75;4952662;29;20243;-87
2022/06/06 08:03:51;;;;;;;17.80;9.80;;;;;;;22.90;100.00;99035.59;4936221;29;20199;-87
2022/06/06 08:06:48;;;;;;;16.20;9.73;;;;;;;23.06;100.00;99062.09;4954699;29;20176;-84
2022/06/06 08:09:16;;;;;;;16.90;9.83;;;;;;;23.14;100.00;99085.22;4914218;29;20232;-86
2022/06/06 08:12:19;;;;;;;15.67;9.13;;;;;;;23.35;100.00;99092.72;4919564;29;20193;-87
2022/06/06 08:14:53;;;;;;;16.20;9.33;;;;;;;23.31;100.00;99140.13;4935511;29;21453;-87
2022/06/06 08:17:33;;;;;;;14.13;8.97;;;;;;;23.65;100.00;99140.63;4936576;29;20209;-87
2022/06/06 08:20:33;;;;;;;15.63;8.93;;;;;;;23.29;100.00;99033.38;4957571;29;20228;-88
2022/06/06 08:23:01;;;;;;;15.70;8.23;;;;;;;24.10;100.00;99074.47;4958678;28;20255;-84
2022/06/06 08:25:27;;;;;;;17.87;8.33;;;;;;;24.44;100.00;99073.06;4940905;29;20184;-87
2022/06/06 08:27:56;;;;;;;14.13;8.37;;;;;;;24.24;100.00;98971.63;4957787;29;20208;-89
2022/06/06 08:30:22;;;;;;;15.33;8.60;;;;;;;25.17;100.00;99026.78;4955568;29;20176;-89
2022/06/06 08:32:48;;;;;;;14.03;8.10;;;;;;;26.27;100.00;99096.06;4955534;29;20704;-89
2022/06/06 08:35:14;;;;;;;15.40;8.17;;;;;;;26.59;100.00;99180.13;4983401;28;20168;-87
2022/06/06 08:37:50;;;;;;;11.80;7.83;;;;;;;26.80;100.00;99180.47;4987374;28;20204;-87
2022/06/06 08:40:45;;;;;;;14.63;8.37;;;;;;;25.91;100.00;99177.31;4975329;28;20706;-87
2022/06/06 08:43:17;;;;;;;13.97;7.77;;;;;;;26.34;100.00;99185.88;4971817;28;20177;-86
2022/06/06 08:45:48;;;;;;;16.17;7.90;;;;;;;26.11;100.00;99201.09;4986214;28;20825;-87
2022/06/06 08:48:55;;;;;;;13.03;8.60;;;;;;;24.28;100.00;99207.00;5016371;28;20226;-88
2022/06/06 08:51:45;;;;;;;13.20;7.50;;;;;;;23.13;100.00;99177.34;4933360;29;20196;-87
2022/06/06 08:54:29;;;;;;;15.43;7.80;;;;;;;23.09;100.00;99190.31;4935559;29;20177;-85
2022/06/06 08:57:28;;;;;;;14.63;8.43;;;;;;;23.03;100.00;99159.38;4936740;29;20177;-88
2022/06/06 09:00:07;;;;;;;15.60;8.80;;;;;;;22.29;100.00;98995.78;4953002;28;20255;-87
2022/06/06 09:03:11;;;;;;;17.17;9.83;;;;;;;23.32;100.00;99095.34;4955424;29;20192;-86
2022/06/06 09:05:46;;;;;;;16.10;9.90;;;;;;;23.35;100.00;99052.22;4956276;29;20187;-86
2022/06/06 09:08:29;;;;;;;19.67;10.47;;;;;;;23.35;100.00;99023.81;4941382;28;20227;-88
2022/06/06 09:11:12;;;;;;;19.90;10.30;;;;;;;23.22;100.00;99062.75;4957203;28;20181;-87
2022/06/06 09:14:02;;;;;;;19.90;10.13;;;;;;;23.25;100.00;99114.38;4941133;29;20712;-87
2022/06/06 09:17:05;;;;;;;16.40;9.67;;;;;;;23.55;100.00;99134.69;4960097;29;20311;-88
2022/06/06 09:20:02;;;;;;;16.67;10.00;;;;;;;23.89;100.00;99120.47;4944432;29;20602;-88
2022/06/06 09:22:53;;;;;;;15.50;9.97;;;;;;;24.22;100.00;99128.63;4956907;29;20277;-88
2022/06/06 09:25:52;;;;;;;19.37;10.63;;;;;;;24.59;100.00;99133.16;4936149;29;20292;-86
2022/06/06 09:28:37;;;;;;;13.70;7.83;;;;;;;24.67;100.00;99133.03;4953305;28;20224;-87
2022/06/06 09:31:21;;;;;;;14.30;7.77;;;;;;;24.86;100.00;99126.69;4957969;28;20191;-87
2022/06/06 09:34:18;;;;;;;11.93;6.67;;;;;;;24.93;100.00;99141.25;4957789;28;20196;-87
2022/06/06 09:36:46;;;;;;;8.63;6.40;;;;;;;25.05;100.00;99135.00;4971054;28;20687;-87
2022/06/06 09:39:44;;;;;;;12.30;6.10;;;;;;;25.19;100.00;99125.19;4968506;28;20184;-88
2022/06/06 09:42:24;;;;;;;11.03;6.70;;;;;;;25.73;100.00;99128.44;4876090;29;20359;-87
2022/06/06 09:45:14;;;;;;;10.20;5.63;;;;;;;26.42;100.00;99143.31;4886516;29;20178;-87
2022/06/06 09:47:51;;;;;;;10.02;6.03;;;;;;;27.11;100.00;99143.28;4887426;29;20297;-87
2022/06/06 09:50:16;;;;;;;13.93;5.93;;;;;;;27.61;100.00;99134.09;4891120;29;20595;-88
2022/06/06 09:53:12;;;;;;;9.98;5.45;;;;;;;27.84;100.00;99147.25;4893832;29;20654;-88
2022/06/06 09:59:04;;;;;;;9.35;6.00;;;;;;;26.96;100.00;99173.13;4886383;29;20204;-87
2022/06/06 10:02:04;;;;;;;12.77;6.70;;;;;;;26.36;100.00;99183.25;4902307;29;20189;-86
2022/06/06 10:04:50;;;;;;;11.02;7.25;;;;;;;25.93;100.00;99192.88;4916542;29;20167;-87
2022/06/06 10:07:34;;;;;;;15.20;7.90;;;;;;;25.88;100.00;99186.91;4917208;29;21033;-86
2022/06/06 10:10:11;;;;;;;15.03;8.00;;;;;;;25.96;100.00;99170.28;4917905;29;20177;-87
2022/06/06 10:13:09;;;;;;;14.90;9.50;;;;;;;25.75;100.00;99170.75;4920337;29;20261;-87
2022/06/06 10:15:55;;;;;;;11.40;8.30;;;;;;;25.18;100.00;99056.13;4906004;29;20486;-86
2022/06/06 10:18:30;;;;;;;14.23;7.87;;;;;;;25.69;100.00;99103.44;4949830;28;20256;-87
2022/06/06 10:21:17;;;;;;;14.00;7.90;;;;;;;25.31;100.00;99122.38;5035379;28;20241;-87
2022/06/06 10:23:42;;;;;;;13.83;9.47;;;;;;;25.33;100.00;99146.50;5035353;28;20225;-87
2022/06/06 10:26:35;;;;;;;13.57;8.63;;;;;;;25.23;100.00;99164.00;5035021;28;20293;-86
2022/06/06 10:29:16;;;;;;;17.67;8.83;;;;;;;25.02;100.00;99169.59;5034734;28;20284;-87
2022/06/06 10:31:48;;;;;;;17.57;9.07;;;;;;;25.10;100.00;99184.97;5034132;28;20182;-87
2022/06/06 10:34:14;;;;;;;23.60;15.03;;;;;;;24.92;100.00;99186.16;5035149;28;20537;-87
2022/06/06 10:36:46;;;;;;;26.97;18.43;;;;;;;24.95;100.00;99180.91;5034469;28;20162;-86
2022/06/06 10:39:51;;;;;;;21.70;14.43;;;;;;;24.54;100.00;99147.94;5026641;28;20228;-87
2022/06/06 10:42:52;;;;;;;20.43;12.13;;;;;;;24.41;100.00;99192.16;4997521;28;20185;-87
2022/06/06 10:45:24;;;;;;;13.30;7.73;;;;;;;24.04;100.00;99197.81;5034576;28;20176;-86
2022/06/06 10:47:59;;;;;;;13.13;7.40;;;;;;;24.11;100.00;99210.72;5017157;28;20178;-87
2022/06/06 10:54:30;;;;;;;13.13;6.90;;;;;;;23.27;100.00;99227.16;4955109;29;20245;-87
2022/06/06 10:57:04;;;;;;;13.73;6.83;;;;;;;22.99;100.00;99230.03;4954341;29;20177;-86
2022/06/06 10:59:44;;;;;;;11.70;6.70;;;;;;;22.92;100.00;99211.13;4938279;29;20180;-88
2022/06/06 11:02:35;;;;;;;11.93;6.83;;;;;;;22.62;100.00;99206.19;4954552;29;20199;-85
2022/06/06 11:05:11;;;;;;;11.57;6.03;;;;;;;22.65;100.00;99213.94;4954541;28;20184;-86
2022/06/06 11:07:46;;;;;;;13.63;6.27;;;;;;;22.69;100.00;99223.38;4955013;29;20202;-87
2022/06/06 11:10:21;;;;;;;9.83;5.80;;;;;;;22.18;100.00;99180.69;4954978;29;20169;-87
2022/06/06 11:13:00;;;;;;;10.70;6.13;;;;;;;21.97;100.00;99165.38;4955409;29;20250;-88
2022/06/06 11:15:58;;;;;;;12.20;6.10;;;;;;;22.44;100.00;99160.75;4956536;29;20265;-87
2022/06/06 11:18:42;;;;;;;13.03;6.00;;;;;;;22.38;100.00;99153.06;4940641;29;20185;-86
2022/06/06 11:22:01;;;;;;;10.00;5.97;;;;;;;22.37;100.00;99119.53;4936634;29;20658;-87
2022/06/06 11:24:59;;;;;;;13.87;6.60;;;;;;;23.04;100.00;99186.94;4898631;29;20198;-88
2022/06/06 11:27:35;;;;;;;13.07;8.43;;;;;;;23.02;100.00;99170.59;4908579;29;20205;-87
2022/06/06 11:30:16;;;;;;;91.57;65.47;;;;;;;23.19;100.00;99205.69;4917674;29;20206;-86
2022/06/06 11:33:00;;;;;;;36.63;23.70;;;;;;;23.27;100.00;99182.38;4923657;29;20215;-86
2022/06/06 11:35:42;;;;;;;13.90;6.53;;;;;;;22.77;100.00;99116.59;4920279;29;20190;-88
2022/06/06 11:38:46;;;;;;;13.23;6.00;;;;;;;23.12;100.00;99165.31;4923817;29;20204;-87
2022/06/06 11:41:53;;;;;;;11.53;5.20;;;;;;;23.25;100.00;99151.41;4902605;29;20264;-86
2022/06/06 11:45:18;;;;;;;11.97;6.10;;;;;;;23.44;100.00;99149.47;4864453;29;20191;-87
2022/06/06 11:47:51;;;;;;;9.90;5.80;;;;;;;23.86;100.00;99143.78;4829591;29;20825;-87
2022/06/06 11:50:52;;;;;;;13.00;6.73;;;;;;;24.18;100.00;99138.16;4825862;29;20273;-87
2022/06/06 11:53:42;;;;;;;14.10;5.53;;;;;;;24.23;100.00;99125.16;4790515;29;20763;-88
2022/06/06 11:56:26;;;;;;;12.07;5.57;;;;;;;24.28;100.00;99124.19;4773770;30;20225;-86
2022/06/06 11:59:16;;;;;;;13.73;5.70;;;;;;;24.44;100.00;99125.69;4772676;30;20199;-88
2022/06/06 12:01:55;;;;;;;9.83;5.03;;;;;;;23.98;100.00;99022.03;4807732;29;20231;-88
2022/06/06 12:04:42;;;;;;;7.63;4.80;;;;;;;24.60;100.00;99121.09;4823001;29;20215;-87
2022/06/06 12:07:25;;;;;;;11.63;4.87;;;;;;;24.76;100.00;99116.47;4822573;29;20193;-87
2022/06/06 12:09:53;;;;;;;8.73;4.93;;;;;;;24.92;100.00;99123.13;4822921;29;20608;-88
2022/06/06 12:12:31;;;;;;;8.70;4.00;;;;;;;24.93;100.00;99122.25;4824730;29;20687;-89
2022/06/06 12:15:34;;;;;;;10.17;4.67;;;;;;;25.01;100.00;99138.50;4824044;29;20666;-88
2022/06/06 12:18:14;;;;;;;8.30;4.70;;;;;;;25.58;100.00;99141.72;4822078;29;20201;-87
2022/06/06 12:21:10;;;;;;;9.87;4.33;;;;;;;25.85;100.00;99146.31;4872247;29;20193;-87
2022/06/06 12:23:47;;;;;;;7.30;3.90;;;;;;;26.10;100.00;99157.84;4931003;28;20386;-88
2022/06/06 12:26:28;;;;;;;7.83;4.03;;;;;;;26.34;100.00;99161.69;4977967;28;20605;-88
2022/06/06 12:29:05;;;;;;;11.10;4.30;;;;;;;26.34;100.00;99167.69;5033927;28;20197;-88
2022/06/06 12:31:58;;;;;;;8.33;3.87;;;;;;;25.35;100.00;99162.06;5018244;28;20892;-89
2022/06/06 12:34:45;;;;;;;6.07;3.80;;;;;;;25.97;100.00;99160.75;5014986;28;20186;-87
2022/06/06 12:37:25;;;;;;;7.93;3.47;;;;;;;25.99;100.00;99161.56;5051335;28;20201;-87
2022/06/06 12:40:06;;;;;;;9.10;3.17;;;;;;;25.90;100.00;99162.66;5052966;28;20197;-88